sensor_id;sensor_type;location;lat;lon;timestamp;P1;durP1;ratioP1;P2;durP2;ratioP2
42770;SDS011;28426;42.872;25.314;2023-09-08T00:00:54;13.07;;;5.50;;
42770;SDS011;28426;42.872;25.314;2023-09-08T00:03:26;9.48;;;4.85;;
42770;SDS011;28426;42.872;25.314;2023-09-08T00:05:59;10.60;;;5.00;;
42770;SDS011;28426;42.872;25.314;2023-09-08T00:08:32;8.75;;;5.00;;
42770;SDS011;28426;42.872;25.314;2023-09-08T00:11:04;12.60;;;5.20;;
42770;SDS011;28426;42.872;25.314;2023-09-08T00:13:39;10.65;;;5.30;;
42770;SDS011;28426;42.872;25.314;2023-09-08T00:16:12;7.47;;;5.15;;
42770;SDS011;28426;42.872;25.314;2023-09-08T00:18:45;12.15;;;5.38;;
42770;SDS011;28426;42.872;25.314;2023-09-08T00:21:17;7.80;;;4.72;;
42770;SDS011;28426;42.872;25.314;2023-09-08T00:23:51;10.27;;;4.97;;
42770;SDS011;28426;42.872;25.314;2023-09-08T00:26:23;12.55;;;4.95;;
42770;SDS011;28426;42.872;25.314;2023-09-08T00:28:58;8.90;;;4.85;;
42770;SDS011;28426;42.872;25.314;2023-09-08T00:31:32;10.73;;;5.40;;
42770;SDS011;28426;42.872;25.314;2023-09-08T00:34:04;12.98;;;4.70;;
42770;SDS011;28426;42.872;25.314;2023-09-08T00:36:37;11.35;;;4.63;;
42770;SDS011;28426;42.872;25.314;2023-09-08T00:39:09;8.82;;;4.97;;
42770;SDS011;28426;42.872;25.314;2023-09-08T00:41:43;12.45;;;5.13;;
42770;SDS011;28426;42.872;25.314;2023-09-08T00:44:19;12.10;;;5.15;;
42770;SDS011;28426;42.872;25.314;2023-09-08T00:46:52;9.82;;;4.78;;
42770;SDS011;28426;42.872;25.314;2023-09-08T00:49:25;12.32;;;4.93;;
42770;SDS011;28426;42.872;25.314;2023-09-08T00:55:09;11.55;;;4.80;;
42770;SDS011;28426;42.872;25.314;2023-09-08T00:57:42;9.27;;;4.80;;
42770;SDS011;28426;42.872;25.314;2023-09-08T01:00:17;11.23;;;5.13;;
42770;SDS011;28426;42.872;25.314;2023-09-08T01:02:49;10.95;;;4.90;;
42770;SDS011;28426;42.872;25.314;2023-09-08T01:05:20;13.75;;;4.90;;
42770;SDS011;28426;42.872;25.314;2023-09-08T01:07:52;11.07;;;4.47;;
42770;SDS011;28426;42.872;25.314;2023-09-08T01:10:24;10.73;;;5.10;;
42770;SDS011;28426;42.872;25.314;2023-09-08T01:12:56;14.02;;;5.22;;
42770;SDS011;28426;42.872;25.314;2023-09-08T01:15:30;11.65;;;5.15;;
42770;SDS011;28426;42.872;25.314;2023-09-08T01:18:02;8.85;;;4.70;;
42770;SDS011;28426;42.872;25.314;2023-09-08T01:20:46;13.65;;;5.45;;
42770;SDS011;28426;42.872;25.314;2023-09-08T01:23:35;9.50;;;4.63;;
42770;SDS011;28426;42.872;25.314;2023-09-08T01:26:23;9.82;;;4.70;;
42770;SDS011;28426;42.872;25.314;2023-09-08T01:28:58;11.57;;;4.97;;
42770;SDS011;28426;42.872;25.314;2023-09-08T01:31:33;11.05;;;4.53;;
42770;SDS011;28426;42.872;25.314;2023-09-08T01:34:06;9.30;;;4.60;;
42770;SDS011;28426;42.872;25.314;2023-09-08T01:36:43;12.27;;;5.00;;
42770;SDS011;28426;42.872;25.314;2023-09-08T01:39:17;9.30;;;4.80;;
42770;SDS011;28426;42.872;25.314;2023-09-08T01:41:54;12.00;;;4.85;;
42770;SDS011;28426;42.872;25.314;2023-09-08T01:44:26;14.75;;;5.10;;
42770;SDS011;28426;42.872;25.314;2023-09-08T01:46:58;11.88;;;5.20;;
42770;SDS011;28426;42.872;25.314;2023-09-08T01:49:31;8.35;;;4.93;;
42770;SDS011;28426;42.872;25.314;2023-09-08T01:52:04;9.00;;;5.10;;
42770;SDS011;28426;42.872;25.314;2023-09-08T01:54:36;8.35;;;4.88;;
42770;SDS011;28426;42.872;25.314;2023-09-08T01:57:11;8.45;;;4.80;;
42770;SDS011;28426;42.872;25.314;2023-09-08T01:59:43;7.20;;;4.97;;
42770;SDS011;28426;42.872;25.314;2023-09-08T02:02:16;13.50;;;4.45;;
42770;SDS011;28426;42.872;25.314;2023-09-08T02:04:48;12.68;;;4.85;;
42770;SDS011;28426;42.872;25.314;2023-09-08T02:07:21;10.55;;;4.60;;
42770;SDS011;28426;42.872;25.314;2023-09-08T02:09:53;10.57;;;4.78;;
42770;SDS011;28426;42.872;25.314;2023-09-08T02:12:28;13.23;;;4.45;;
42770;SDS011;28426;42.872;25.314;2023-09-08T02:15:02;7.70;;;4.43;;
42770;SDS011;28426;42.872;25.314;2023-09-08T02:17:35;10.75;;;4.82;;
42770;SDS011;28426;42.872;25.314;2023-09-08T02:20:10;7.60;;;4.30;;
42770;SDS011;28426;42.872;25.314;2023-09-08T02:22:42;11.60;;;4.70;;
42770;SDS011;28426;42.872;25.314;2023-09-08T02:25:16;16.38;;;5.15;;
42770;SDS011;28426;42.872;25.314;2023-09-08T02:27:52;9.85;;;4.70;;
42770;SDS011;28426;42.872;25.314;2023-09-08T02:30:24;11.25;;;4.72;;
42770;SDS011;28426;42.872;25.314;2023-09-08T02:32:57;8.70;;;4.85;;
42770;SDS011;28426;42.872;25.314;2023-09-08T02:35:35;9.32;;;4.50;;
42770;SDS011;28426;42.872;25.314;2023-09-08T02:38:08;8.75;;;4.53;;
42770;SDS011;28426;42.872;25.314;2023-09-08T02:40:42;9.52;;;4.68;;
42770;SDS011;28426;42.872;25.314;2023-09-08T02:43:17;10.65;;;4.80;;
42770;SDS011;28426;42.872;25.314;2023-09-08T02:45:50;10.20;;;4.38;;
42770;SDS011;28426;42.872;25.314;2023-09-08T02:48:23;12.25;;;4.57;;
42770;SDS011;28426;42.872;25.314;2023-09-08T02:50:55;16.10;;;4.78;;
42770;SDS011;28426;42.872;25.314;2023-09-08T02:53:27;8.48;;;4.57;;
42770;SDS011;28426;42.872;25.314;2023-09-08T02:56:00;8.45;;;4.38;;
42770;SDS011;28426;42.872;25.314;2023-09-08T02:58:36;11.68;;;4.35;;
42770;SDS011;28426;42.872;25.314;2023-09-08T03:01:09;10.07;;;4.63;;
42770;SDS011;28426;42.872;25.314;2023-09-08T03:03:43;12.15;;;4.30;;
42770;SDS011;28426;42.872;25.314;2023-09-08T03:06:17;12.43;;;4.53;;
42770;SDS011;28426;42.872;25.314;2023-09-08T03:08:50;9.10;;;4.10;;
42770;SDS011;28426;42.872;25.314;2023-09-08T03:11:23;11.85;;;4.90;;
42770;SDS011;28426;42.872;25.314;2023-09-08T03:13:57;9.00;;;4.47;;
42770;SDS011;28426;42.872;25.314;2023-09-08T03:16:30;18.13;;;5.10;;
42770;SDS011;28426;42.872;25.314;2023-09-08T03:19:03;10.75;;;4.85;;
42770;SDS011;28426;42.872;25.314;2023-09-08T03:21:35;9.13;;;4.65;;
42770;SDS011;28426;42.872;25.314;2023-09-08T03:24:08;14.82;;;4.95;;
42770;SDS011;28426;42.872;25.314;2023-09-08T03:26:39;12.90;;;4.78;;
42770;SDS011;28426;42.872;25.314;2023-09-08T03:29:13;11.48;;;4.78;;
42770;SDS011;28426;42.872;25.314;2023-09-08T03:31:45;12.57;;;4.72;;
42770;SDS011;28426;42.872;25.314;2023-09-08T03:34:18;7.00;;;4.38;;
42770;SDS011;28426;42.872;25.314;2023-09-08T03:36:53;10.30;;;4.40;;
42770;SDS011;28426;42.872;25.314;2023-09-08T03:39:26;12.18;;;4.80;;
42770;SDS011;28426;42.872;25.314;2023-09-08T03:41:58;11.00;;;5.07;;
42770;SDS011;28426;42.872;25.314;2023-09-08T03:44:33;15.40;;;4.97;;
42770;SDS011;28426;42.872;25.314;2023-09-08T03:47:05;10.68;;;4.97;;
42770;SDS011;28426;42.872;25.314;2023-09-08T03:49:37;15.85;;;5.03;;
42770;SDS011;28426;42.872;25.314;2023-09-08T03:52:08;12.98;;;4.75;;
42770;SDS011;28426;42.872;25.314;2023-09-08T03:54:41;14.20;;;4.60;;
42770;SDS011;28426;42.872;25.314;2023-09-08T03:57:14;8.68;;;4.40;;
42770;SDS011;28426;42.872;25.314;2023-09-08T03:59:48;11.48;;;4.13;;
42770;SDS011;28426;42.872;25.314;2023-09-08T04:02:20;10.43;;;4.60;;
42770;SDS011;28426;42.872;25.314;2023-09-08T04:04:53;9.45;;;4.97;;
42770;SDS011;28426;42.872;25.314;2023-09-08T04:07:26;13.68;;;4.90;;
42770;SDS011;28426;42.872;25.314;2023-09-08T04:09:58;11.23;;;5.00;;
42770;SDS011;28426;42.872;25.314;2023-09-08T04:12:31;11.90;;;4.65;;
42770;SDS011;28426;42.872;25.314;2023-09-08T04:15:06;17.15;;;4.93;;
42770;SDS011;28426;42.872;25.314;2023-09-08T04:17:39;14.18;;;4.80;;
42770;SDS011;28426;42.872;25.314;2023-09-08T04:20:11;9.05;;;4.85;;
42770;SDS011;28426;42.872;25.314;2023-09-08T04:22:44;10.05;;;4.80;;
42770;SDS011;28426;42.872;25.314;2023-09-08T04:25:17;14.52;;;5.25;;
42770;SDS011;28426;42.872;25.314;2023-09-08T04:27:49;14.43;;;5.43;;
42770;SDS011;28426;42.872;25.314;2023-09-08T04:30:23;14.77;;;5.10;;
42770;SDS011;28426;42.872;25.314;2023-09-08T04:32:57;11.15;;;4.97;;
42770;SDS011;28426;42.872;25.314;2023-09-08T04:35:31;9.35;;;4.68;;
42770;SDS011;28426;42.872;25.314;2023-09-08T04:38:05;7.82;;;4.38;;
42770;SDS011;28426;42.872;25.314;2023-09-08T04:40:40;12.93;;;4.63;;
42770;SDS011;28426;42.872;25.314;2023-09-08T04:43:14;12.07;;;4.70;;
42770;SDS011;28426;42.872;25.314;2023-09-08T04:45:50;10.20;;;4.70;;
42770;SDS011;28426;42.872;25.314;2023-09-08T04:48:26;12.88;;;5.13;;
42770;SDS011;28426;42.872;25.314;2023-09-08T04:51:01;10.55;;;4.55;;
42770;SDS011;28426;42.872;25.314;2023-09-08T04:53:38;12.13;;;4.85;;
42770;SDS011;28426;42.872;25.314;2023-09-08T04:58:50;10.52;;;4.78;;
42770;SDS011;28426;42.872;25.314;2023-09-08T05:01:31;10.90;;;4.63;;
42770;SDS011;28426;42.872;25.314;2023-09-08T05:04:07;9.75;;;4.88;;
42770;SDS011;28426;42.872;25.314;2023-09-08T05:06:44;9.95;;;4.82;;
42770;SDS011;28426;42.872;25.314;2023-09-08T05:09:20;14.35;;;4.50;;
42770;SDS011;28426;42.872;25.314;2023-09-08T05:11:57;8.55;;;5.07;;
42770;SDS011;28426;42.872;25.314;2023-09-08T05:14:30;8.98;;;5.18;;
42770;SDS011;28426;42.872;25.314;2023-09-08T05:17:12;10.75;;;4.40;;
42770;SDS011;28426;42.872;25.314;2023-09-08T05:19:44;11.45;;;4.93;;
42770;SDS011;28426;42.872;25.314;2023-09-08T05:22:21;11.00;;;4.63;;
42770;SDS011;28426;42.872;25.314;2023-09-08T05:24:58;10.50;;;4.18;;
42770;SDS011;28426;42.872;25.314;2023-09-08T05:27:33;12.60;;;4.75;;
42770;SDS011;28426;42.872;25.314;2023-09-08T05:30:06;11.02;;;5.15;;
42770;SDS011;28426;42.872;25.314;2023-09-08T05:32:45;9.88;;;5.50;;
42770;SDS011;28426;42.872;25.314;2023-09-08T05:35:20;10.73;;;4.78;;
42770;SDS011;28426;42.872;25.314;2023-09-08T05:37:53;10.07;;;5.10;;
42770;SDS011;28426;42.872;25.314;2023-09-08T05:40:29;9.18;;;4.32;;
42770;SDS011;28426;42.872;25.314;2023-09-08T05:43:03;11.13;;;4.70;;
42770;SDS011;28426;42.872;25.314;2023-09-08T05:45:38;9.32;;;4.40;;
42770;SDS011;28426;42.872;25.314;2023-09-08T05:48:14;12.25;;;4.35;;
42770;SDS011;28426;42.872;25.314;2023-09-08T05:50:52;7.43;;;4.38;;
42770;SDS011;28426;42.872;25.314;2023-09-08T05:53:28;9.20;;;4.43;;
42770;SDS011;28426;42.872;25.314;2023-09-08T05:56:05;15.15;;;4.80;;
42770;SDS011;28426;42.872;25.314;2023-09-08T05:58:44;10.93;;;4.15;;
42770;SDS011;28426;42.872;25.314;2023-09-08T06:01:20;9.65;;;4.45;;
42770;SDS011;28426;42.872;25.314;2023-09-08T06:04:00;11.02;;;4.30;;
42770;SDS011;28426;42.872;25.314;2023-09-08T06:06:36;8.02;;;4.25;;
42770;SDS011;28426;42.872;25.314;2023-09-08T06:09:11;10.63;;;5.20;;
42770;SDS011;28426;42.872;25.314;2023-09-08T06:11:49;8.40;;;4.60;;
42770;SDS011;28426;42.872;25.314;2023-09-08T06:14:23;9.77;;;4.70;;
42770;SDS011;28426;42.872;25.314;2023-09-08T06:16:57;9.30;;;4.50;;
42770;SDS011;28426;42.872;25.314;2023-09-08T06:19:35;11.18;;;3.75;;
42770;SDS011;28426;42.872;25.314;2023-09-08T06:22:11;9.95;;;4.60;;
42770;SDS011;28426;42.872;25.314;2023-09-08T06:24:44;13.73;;;4.05;;
42770;SDS011;28426;42.872;25.314;2023-09-08T06:27:19;9.13;;;3.92;;
42770;SDS011;28426;42.872;25.314;2023-09-08T06:29:56;9.38;;;4.28;;
42770;SDS011;28426;42.872;25.314;2023-09-08T06:32:33;9.50;;;4.43;;
42770;SDS011;28426;42.872;25.314;2023-09-08T06:35:13;9.82;;;4.75;;
42770;SDS011;28426;42.872;25.314;2023-09-08T06:37:50;8.25;;;3.95;;
42770;SDS011;28426;42.872;25.314;2023-09-08T06:40:30;11.20;;;4.30;;
42770;SDS011;28426;42.872;25.314;2023-09-08T06:43:06;6.75;;;3.72;;
42770;SDS011;28426;42.872;25.314;2023-09-08T06:45:50;6.35;;;3.28;;
42770;SDS011;28426;42.872;25.314;2023-09-08T06:48:26;9.13;;;4.38;;
42770;SDS011;28426;42.872;25.314;2023-09-08T06:51:06;7.30;;;3.15;;
42770;SDS011;28426;42.872;25.314;2023-09-08T06:53:42;7.18;;;4.13;;
42770;SDS011;28426;42.872;25.314;2023-09-08T06:56:20;9.95;;;3.80;;
42770;SDS011;28426;42.872;25.314;2023-09-08T06:59:00;10.93;;;3.65;;
42770;SDS011;28426;42.872;25.314;2023-09-08T07:01:36;9.93;;;3.50;;
42770;SDS011;28426;42.872;25.314;2023-09-08T07:04:14;9.23;;;3.90;;
42770;SDS011;28426;42.872;25.314;2023-09-08T07:06:55;9.73;;;4.10;;
42770;SDS011;28426;42.872;25.314;2023-09-08T07:09:44;7.00;;;4.43;;
42770;SDS011;28426;42.872;25.314;2023-09-08T07:12:21;7.68;;;4.18;;
42770;SDS011;28426;42.872;25.314;2023-09-08T07:15:02;7.63;;;3.47;;
42770;SDS011;28426;42.872;25.314;2023-09-08T07:17:39;7.95;;;3.75;;
42770;SDS011;28426;42.872;25.314;2023-09-08T07:20:18;7.53;;;3.20;;
42770;SDS011;28426;42.872;25.314;2023-09-08T07:22:52;7.65;;;4.38;;
42770;SDS011;28426;42.872;25.314;2023-09-08T07:25:25;8.35;;;3.45;;
42770;SDS011;28426;42.872;25.314;2023-09-08T07:27:58;6.35;;;3.47;;
42770;SDS011;28426;42.872;25.314;2023-09-08T07:30:31;8.63;;;3.53;;
42770;SDS011;28426;42.872;25.314;2023-09-08T07:33:05;8.48;;;3.42;;
42770;SDS011;28426;42.872;25.314;2023-09-08T07:35:39;10.60;;;3.63;;
42770;SDS011;28426;42.872;25.314;2023-09-08T07:38:17;6.70;;;3.58;;
42770;SDS011;28426;42.872;25.314;2023-09-08T07:40:50;7.13;;;3.33;;
42770;SDS011;28426;42.872;25.314;2023-09-08T07:43:24;7.57;;;3.10;;
42770;SDS011;28426;42.872;25.314;2023-09-08T07:45:59;7.25;;;3.65;;
42770;SDS011;28426;42.872;25.314;2023-09-08T07:48:32;8.25;;;3.00;;
42770;SDS011;28426;42.872;25.314;2023-09-08T07:51:06;4.82;;;2.90;;
42770;SDS011;28426;42.872;25.314;2023-09-08T07:53:41;7.88;;;3.00;;
42770;SDS011;28426;42.872;25.314;2023-09-08T07:56:14;9.32;;;3.40;;
42770;SDS011;28426;42.872;25.314;2023-09-08T07:58:51;6.15;;;3.08;;
42770;SDS011;28426;42.872;25.314;2023-09-08T08:01:27;6.78;;;3.40;;
42770;SDS011;28426;42.872;25.314;2023-09-08T08:04:02;4.97;;;2.75;;
42770;SDS011;28426;42.872;25.314;2023-09-08T08:06:41;9.98;;;3.47;;
42770;SDS011;28426;42.872;25.314;2023-09-08T08:09:23;5.65;;;2.97;;
42770;SDS011;28426;42.872;25.314;2023-09-08T08:11:59;7.25;;;2.78;;
42770;SDS011;28426;42.872;25.314;2023-09-08T08:14:34;9.27;;;3.20;;
42770;SDS011;28426;42.872;25.314;2023-09-08T08:17:10;6.70;;;2.88;;
42770;SDS011;28426;42.872;25.314;2023-09-08T08:19:46;7.18;;;3.17;;
42770;SDS011;28426;42.872;25.314;2023-09-08T08:22:21;6.00;;;3.20;;
42770;SDS011;28426;42.872;25.314;2023-09-08T08:25:01;7.57;;;2.97;;
42770;SDS011;28426;42.872;25.314;2023-09-08T08:27:40;9.38;;;2.97;;
42770;SDS011;28426;42.872;25.314;2023-09-08T08:30:14;6.80;;;3.25;;
42770;SDS011;28426;42.872;25.314;2023-09-08T08:32:52;5.05;;;2.80;;
42770;SDS011;28426;42.872;25.314;2023-09-08T08:38:00;9.40;;;3.17;;
42770;SDS011;28426;42.872;25.314;2023-09-08T08:40:37;7.63;;;3.00;;
42770;SDS011;28426;42.872;25.314;2023-09-08T08:43:13;5.60;;;3.13;;
42770;SDS011;28426;42.872;25.314;2023-09-08T08:45:50;8.00;;;3.25;;
42770;SDS011;28426;42.872;25.314;2023-09-08T08:48:28;6.80;;;3.55;;
42770;SDS011;28426;42.872;25.314;2023-09-08T08:51:05;6.30;;;3.30;;
42770;SDS011;28426;42.872;25.314;2023-09-08T08:53:43;9.65;;;3.35;;
42770;SDS011;28426;42.872;25.314;2023-09-08T08:56:19;10.05;;;3.70;;
42770;SDS011;28426;42.872;25.314;2023-09-08T08:58:53;7.05;;;3.38;;
42770;SDS011;28426;42.872;25.314;2023-09-08T09:01:26;11.83;;;3.20;;
42770;SDS011;28426;42.872;25.314;2023-09-08T09:04:00;9.80;;;3.35;;
42770;SDS011;28426;42.872;25.314;2023-09-08T09:06:37;10.25;;;3.00;;
42770;SDS011;28426;42.872;25.314;2023-09-08T09:09:11;4.90;;;2.60;;
42770;SDS011;28426;42.872;25.314;2023-09-08T09:11:55;4.47;;;2.55;;
42770;SDS011;28426;42.872;25.314;2023-09-08T09:14:33;6.25;;;2.75;;
42770;SDS011;28426;42.872;25.314;2023-09-08T09:17:10;5.70;;;2.97;;
42770;SDS011;28426;42.872;25.314;2023-09-08T09:19:45;8.35;;;3.00;;
42770;SDS011;28426;42.872;25.314;2023-09-08T09:22:22;6.55;;;2.90;;
42770;SDS011;28426;42.872;25.314;2023-09-08T09:25:15;6.88;;;3.03;;
42770;SDS011;28426;42.872;25.314;2023-09-08T09:28:00;5.05;;;2.63;;
42770;SDS011;28426;42.872;25.314;2023-09-08T09:30:46;11.00;;;3.05;;
42770;SDS011;28426;42.872;25.314;2023-09-08T09:33:22;5.20;;;2.42;;
42770;SDS011;28426;42.872;25.314;2023-09-08T09:35:59;5.45;;;2.95;;
42770;SDS011;28426;42.872;25.314;2023-09-08T09:38:36;8.80;;;3.03;;
42770;SDS011;28426;42.872;25.314;2023-09-08T09:41:11;5.57;;;2.88;;
42770;SDS011;28426;42.872;25.314;2023-09-08T09:43:51;5.38;;;2.83;;
42770;SDS011;28426;42.872;25.314;2023-09-08T09:46:31;11.50;;;3.05;;
42770;SDS011;28426;42.872;25.314;2023-09-08T09:49:08;4.50;;;2.70;;
42770;SDS011;28426;42.872;25.314;2023-09-08T09:51:47;7.80;;;3.10;;
42770;SDS011;28426;42.872;25.314;2023-09-08T09:54:23;6.00;;;3.13;;
42770;SDS011;28426;42.872;25.314;2023-09-08T09:56:59;6.65;;;2.85;;
42770;SDS011;28426;42.872;25.314;2023-09-08T09:59:37;9.85;;;3.58;;
42770;SDS011;28426;42.872;25.314;2023-09-08T10:02:14;7.43;;;3.45;;
42770;SDS011;28426;42.872;25.314;2023-09-08T10:04:51;5.80;;;3.40;;
42770;SDS011;28426;42.872;25.314;2023-09-08T10:07:27;6.80;;;3.63;;
42770;SDS011;28426;42.872;25.314;2023-09-08T10:10:04;5.15;;;3.10;;
42770;SDS011;28426;42.872;25.314;2023-09-08T10:12:40;6.28;;;3.10;;
42770;SDS011;28426;42.872;25.314;2023-09-08T10:15:24;9.48;;;3.42;;
42770;SDS011;28426;42.872;25.314;2023-09-08T10:18:03;6.60;;;3.45;;
42770;SDS011;28426;42.872;25.314;2023-09-08T10:20:40;8.60;;;3.33;;
42770;SDS011;28426;42.872;25.314;2023-09-08T10:23:19;10.88;;;3.28;;
42770;SDS011;28426;42.872;25.314;2023-09-08T10:26:03;7.30;;;3.55;;
42770;SDS011;28426;42.872;25.314;2023-09-08T10:28:43;6.38;;;3.03;;
42770;SDS011;28426;42.872;25.314;2023-09-08T10:31:23;8.40;;;3.50;;
42770;SDS011;28426;42.872;25.314;2023-09-08T10:34:01;6.30;;;3.17;;
42770;SDS011;28426;42.872;25.314;2023-09-08T10:36:37;5.07;;;3.00;;
42770;SDS011;28426;42.872;25.314;2023-09-08T10:45:01;5.82;;;3.50;;
42770;SDS011;28426;42.872;25.314;2023-09-08T10:47:59;4.85;;;3.50;;
42770;SDS011;28426;42.872;25.314;2023-09-08T10:50:34;6.43;;;3.22;;
42770;SDS011;28426;42.872;25.314;2023-09-08T10:53:17;7.00;;;3.17;;
42770;SDS011;28426;42.872;25.314;2023-09-08T10:55:53;8.23;;;3.80;;
42770;SDS011;28426;42.872;25.314;2023-09-08T10:58:33;7.65;;;4.18;;
42770;SDS011;28426;42.872;25.314;2023-09-08T11:01:13;7.43;;;3.63;;
42770;SDS011;28426;42.872;25.314;2023-09-08T11:03:59;6.63;;;3.20;;
42770;SDS011;28426;42.872;25.314;2023-09-08T11:06:42;8.60;;;3.42;;
42770;SDS011;28426;42.872;25.314;2023-09-08T11:09:20;8.60;;;3.33;;
42770;SDS011;28426;42.872;25.314;2023-09-08T11:17:02;5.47;;;3.35;;
42770;SDS011;28426;42.872;25.314;2023-09-08T11:19:48;7.57;;;3.17;;
42770;SDS011;28426;42.872;25.314;2023-09-08T11:22:27;9.35;;;3.75;;
42770;SDS011;28426;42.872;25.314;2023-09-08T11:25:07;5.95;;;2.78;;
42770;SDS011;28426;42.872;25.314;2023-09-08T11:27:48;8.38;;;3.85;;
42770;SDS011;28426;42.872;25.314;2023-09-08T11:30:24;7.75;;;2.97;;
42770;SDS011;28426;42.872;25.314;2023-09-08T11:32:58;5.70;;;2.78;;
42770;SDS011;28426;42.872;25.314;2023-09-08T11:35:37;7.43;;;3.08;;
42770;SDS011;28426;42.872;25.314;2023-09-08T11:38:13;5.15;;;2.72;;
42770;SDS011;28426;42.872;25.314;2023-09-08T11:40:48;6.13;;;2.72;;
42770;SDS011;28426;42.872;25.314;2023-09-08T11:43:22;4.87;;;2.80;;
42770;SDS011;28426;42.872;25.314;2023-09-08T11:45:57;7.00;;;3.10;;
42770;SDS011;28426;42.872;25.314;2023-09-08T11:48:33;8.77;;;3.00;;
42770;SDS011;28426;42.872;25.314;2023-09-08T11:51:13;7.57;;;3.50;;
42770;SDS011;28426;42.872;25.314;2023-09-08T11:53:49;7.70;;;3.03;;
42770;SDS011;28426;42.872;25.314;2023-09-08T11:56:26;9.32;;;3.00;;
42770;SDS011;28426;42.872;25.314;2023-09-08T11:59:17;5.68;;;3.15;;
42770;SDS011;28426;42.872;25.314;2023-09-08T12:01:52;7.18;;;2.97;;
42770;SDS011;28426;42.872;25.314;2023-09-08T12:04:25;6.95;;;3.53;;
42770;SDS011;28426;42.872;25.314;2023-09-08T12:06:59;10.75;;;4.05;;
42770;SDS011;28426;42.872;25.314;2023-09-08T12:09:34;6.30;;;3.35;;
42770;SDS011;28426;42.872;25.314;2023-09-08T12:12:10;6.63;;;3.50;;
42770;SDS011;28426;42.872;25.314;2023-09-08T12:14:48;11.73;;;3.38;;
42770;SDS011;28426;42.872;25.314;2023-09-08T12:17:25;7.20;;;3.50;;
42770;SDS011;28426;42.872;25.314;2023-09-08T12:19:59;7.00;;;3.38;;
42770;SDS011;28426;42.872;25.314;2023-09-08T12:22:48;7.05;;;3.65;;
42770;SDS011;28426;42.872;25.314;2023-09-08T12:25:25;7.57;;;3.13;;
42770;SDS011;28426;42.872;25.314;2023-09-08T12:28:06;6.65;;;3.47;;
42770;SDS011;28426;42.872;25.314;2023-09-08T12:30:44;7.13;;;3.22;;
42770;SDS011;28426;42.872;25.314;2023-09-08T12:33:26;9.32;;;3.50;;
42770;SDS011;28426;42.872;25.314;2023-09-08T12:36:06;8.65;;;3.22;;
42770;SDS011;28426;42.872;25.314;2023-09-08T12:38:47;4.75;;;2.65;;
42770;SDS011;28426;42.872;25.314;2023-09-08T12:41:22;5.38;;;3.00;;
42770;SDS011;28426;42.872;25.314;2023-09-08T12:43:55;6.57;;;3.20;;
42770;SDS011;28426;42.872;25.314;2023-09-08T12:46:34;6.53;;;3.10;;
42770;SDS011;28426;42.872;25.314;2023-09-08T12:49:07;6.05;;;3.70;;
42770;SDS011;28426;42.872;25.314;2023-09-08T12:51:40;7.35;;;3.47;;
42770;SDS011;28426;42.872;25.314;2023-09-08T12:54:14;5.40;;;3.33;;
42770;SDS011;28426;42.872;25.314;2023-09-08T12:56:48;7.07;;;3.20;;
42770;SDS011;28426;42.872;25.314;2023-09-08T12:59:24;11.50;;;3.58;;
42770;SDS011;28426;42.872;25.314;2023-09-08T13:02:01;9.88;;;3.85;;
42770;SDS011;28426;42.872;25.314;2023-09-08T13:04:38;6.68;;;3.22;;
42770;SDS011;28426;42.872;25.314;2023-09-08T13:07:18;7.60;;;4.35;;
42770;SDS011;28426;42.872;25.314;2023-09-08T13:09:55;6.03;;;3.42;;
42770;SDS011;28426;42.872;25.314;2023-09-08T13:12:31;9.10;;;4.03;;
42770;SDS011;28426;42.872;25.314;2023-09-08T13:15:07;9.15;;;4.00;;
42770;SDS011;28426;42.872;25.314;2023-09-08T13:17:48;7.80;;;3.55;;
42770;SDS011;28426;42.872;25.314;2023-09-08T13:20:23;6.63;;;4.15;;
42770;SDS011;28426;42.872;25.314;2023-09-08T13:22:57;10.68;;;3.67;;
42770;SDS011;28426;42.872;25.314;2023-09-08T13:25:32;8.02;;;4.18;;
42770;SDS011;28426;42.872;25.314;2023-09-08T13:28:06;5.90;;;3.45;;
42770;SDS011;28426;42.872;25.314;2023-09-08T13:30:43;7.25;;;3.53;;
42770;SDS011;28426;42.872;25.314;2023-09-08T13:33:24;8.50;;;3.47;;
42770;SDS011;28426;42.872;25.314;2023-09-08T13:36:00;7.55;;;3.35;;
42770;SDS011;28426;42.872;25.314;2023-09-08T13:38:35;6.63;;;3.65;;
42770;SDS011;28426;42.872;25.314;2023-09-08T13:41:12;7.80;;;3.55;;
42770;SDS011;28426;42.872;25.314;2023-09-08T13:43:47;8.63;;;3.47;;
42770;SDS011;28426;42.872;25.314;2023-09-08T13:46:23;9.45;;;3.60;;
42770;SDS011;28426;42.872;25.314;2023-09-08T13:49:01;6.00;;;3.65;;
42770;SDS011;28426;42.872;25.314;2023-09-08T13:51:38;8.63;;;4.47;;
42770;SDS011;28426;42.872;25.314;2023-09-08T13:54:18;7.90;;;3.40;;
42770;SDS011;28426;42.872;25.314;2023-09-08T13:56:58;8.50;;;4.80;;
42770;SDS011;28426;42.872;25.314;2023-09-08T13:59:38;8.27;;;4.15;;
42770;SDS011;28426;42.872;25.314;2023-09-08T14:02:17;7.90;;;3.55;;
42770;SDS011;28426;42.872;25.314;2023-09-08T14:05:14;8.75;;;4.40;;
42770;SDS011;28426;42.872;25.314;2023-09-08T14:07:57;6.25;;;3.42;;
42770;SDS011;28426;42.872;25.314;2023-09-08T14:10:45;7.45;;;3.38;;
42770;SDS011;28426;42.872;25.314;2023-09-08T14:13:25;14.15;;;4.00;;
42770;SDS011;28426;42.872;25.314;2023-09-08T14:16:03;5.95;;;3.70;;
42770;SDS011;28426;42.872;25.314;2023-09-08T14:18:37;9.30;;;3.72;;
42770;SDS011;28426;42.872;25.314;2023-09-08T14:21:16;8.57;;;3.80;;
42770;SDS011;28426;42.872;25.314;2023-09-08T14:23:50;8.25;;;3.45;;
42770;SDS011;28426;42.872;25.314;2023-09-08T14:26:26;6.60;;;3.53;;
42770;SDS011;28426;42.872;25.314;2023-09-08T14:29:02;9.15;;;3.80;;
42770;SDS011;28426;42.872;25.314;2023-09-08T14:31:35;9.77;;;4.15;;
42770;SDS011;28426;42.872;25.314;2023-09-08T14:34:11;6.85;;;3.33;;
42770;SDS011;28426;42.872;25.314;2023-09-08T14:36:48;8.48;;;3.90;;
42770;SDS011;28426;42.872;25.314;2023-09-08T14:39:22;7.95;;;3.72;;
42770;SDS011;28426;42.872;25.314;2023-09-08T14:41:58;8.23;;;3.58;;
42770;SDS011;28426;42.872;25.314;2023-09-08T14:44:31;10.13;;;3.30;;
42770;SDS011;28426;42.872;25.314;2023-09-08T14:47:04;6.82;;;3.00;;
42770;SDS011;28426;42.872;25.314;2023-09-08T14:49:42;8.05;;;3.75;;
42770;SDS011;28426;42.872;25.314;2023-09-08T14:52:19;8.18;;;4.22;;
42770;SDS011;28426;42.872;25.314;2023-09-08T14:54:54;9.32;;;3.50;;
42770;SDS011;28426;42.872;25.314;2023-09-08T14:57:28;11.70;;;4.97;;
42770;SDS011;28426;42.872;25.314;2023-09-08T15:00:02;9.55;;;3.85;;
42770;SDS011;28426;42.872;25.314;2023-09-08T15:02:37;7.20;;;3.78;;
42770;SDS011;28426;42.872;25.314;2023-09-08T15:05:10;7.47;;;3.53;;
42770;SDS011;28426;42.872;25.314;2023-09-08T15:07:47;7.35;;;3.50;;
42770;SDS011;28426;42.872;25.314;2023-09-08T15:10:20;6.47;;;3.33;;
42770;SDS011;28426;42.872;25.314;2023-09-08T15:12:58;11.30;;;3.53;;
42770;SDS011;28426;42.872;25.314;2023-09-08T15:15:32;11.32;;;3.70;;
42770;SDS011;28426;42.872;25.314;2023-09-08T15:18:05;11.00;;;4.05;;
42770;SDS011;28426;42.872;25.314;2023-09-08T15:20:37;9.43;;;4.10;;
42770;SDS011;28426;42.872;25.314;2023-09-08T15:23:12;13.73;;;4.55;;
42770;SDS011;28426;42.872;25.314;2023-09-08T15:25:50;10.65;;;4.20;;
42770;SDS011;28426;42.872;25.314;2023-09-08T15:28:23;7.05;;;3.47;;
42770;SDS011;28426;42.872;25.314;2023-09-08T15:30:56;10.50;;;4.05;;
42770;SDS011;28426;42.872;25.314;2023-09-08T15:33:30;11.57;;;4.10;;
42770;SDS011;28426;42.872;25.314;2023-09-08T15:36:04;13.60;;;3.97;;
42770;SDS011;28426;42.872;25.314;2023-09-08T15:38:40;10.50;;;4.20;;
42770;SDS011;28426;42.872;25.314;2023-09-08T15:41:13;7.65;;;3.50;;